Time;durP1;ratioP1;P1;durP2;ratioP2;P2;SDS_P1;SDS_P2;PMS_P1;PMS_P2;Temp;Humidity;BMP_temperature;BMP_pressure;BME280_temperature;BME280_humidity;BME280_pressure;Samples;Min_cycle;Max_cycle;Signal;HPM_P1;HPM_P2
2023/05/06 00:02:11;;;;;;;1.60;1.50;;;16.20;70.40;;;;;;933545;149;27397;-75
2023/05/06 00:04:38;;;;;;;2.50;1.57;;;16.20;70.50;;;;;;933487;149;27281;-75
2023/05/06 00:07:05;;;;;;;1.57;1.40;;;16.20;70.60;;;;;;934050;149;27460;-75
2023/05/06 00:09:31;;;;;;;4.03;1.82;;;16.20;70.70;;;;;;933444;149;27403;-75
2023/05/06 00:11:58;;;;;;;1.95;1.85;;;16.20;70.90;;;;;;934676;149;27359;-75
2023/05/06 00:14:24;;;;;;;1.80;1.65;;;16.10;70.90;;;;;;934797;149;27994;-75
2023/05/06 00:16:51;;;;;;;1.60;1.50;;;16.10;71.10;;;;;;934191;149;27757;-75
2023/05/06 00:19:18;;;;;;;1.62;1.52;;;16.10;71.20;;;;;;933916;149;28111;-75
2023/05/06 00:21:44;;;;;;;1.67;1.57;;;16.10;71.40;;;;;;934350;149;27386;-75
2023/05/06 00:24:11;;;;;;;1.45;1.35;;;16.10;71.40;;;;;;933965;149;27878;-75
2023/05/06 00:26:37;;;;;;;2.20;1.57;;;16.10;71.30;;;;;;934158;149;27438;-75
2023/05/06 00:29:04;;;;;;;1.98;1.30;;;16.00;71.20;;;;;;933591;149;27358;-75
2023/05/06 00:31:30;;;;;;;1.53;1.43;;;16.00;71.20;;;;;;934106;149;27371;-75
2023/05/06 00:33:57;;;;;;;1.82;1.72;;;16.00;71.20;;;;;;934092;149;27380;-75
2023/05/06 00:36:24;;;;;;;3.65;1.92;;;16.00;71.40;;;;;;933888;149;27461;-75
2023/05/06 00:38:50;;;;;;;2.60;2.03;;;16.00;71.70;;;;;;933221;149;27321;-75
2023/05/06 00:41:17;;;;;;;2.45;1.80;;;15.90;71.80;;;;;;932649;149;27379;-75
2023/05/06 00:43:43;;;;;;;2.25;1.98;;;15.90;72.10;;;;;;933249;149;27356;-75
2023/05/06 00:46:10;;;;;;;3.02;1.98;;;15.90;72.10;;;;;;934268;149;27916;-75
2023/05/06 00:48:37;;;;;;;2.87;1.73;;;15.80;72.30;;;;;;933333;149;27660;-75
2023/05/06 00:51:03;;;;;;;1.80;1.70;;;15.80;72.40;;;;;;933802;149;27317;-75
2023/05/06 00:53:30;;;;;;;2.60;1.87;;;15.80;72.60;;;;;;933767;149;27390;-75
2023/05/06 00:55:56;;;;;;;2.83;1.87;;;15.80;72.60;;;;;;933848;149;27429;-75
2023/05/06 00:58:23;;;;;;;1.90;1.80;;;15.70;72.70;;;;;;927492;150;27494;-75
2023/05/06 01:00:51;;;;;;;2.47;1.67;;;15.70;72.80;;;;;;934861;149;27368;-75
2023/05/06 01:03:17;;;;;;;2.97;2.10;;;15.70;72.90;;;;;;934177;149;27442;-75
2023/05/06 01:05:43;;;;;;;2.30;2.10;;;15.60;72.90;;;;;;911810;153;27465;-75
2023/05/06 01:08:34;;;;;;;2.10;2.00;;;15.60;73.10;;;;;;918556;152;27880;-75
2023/05/06 01:11:09;;;;;;;2.00;1.80;;;15.50;73.20;;;;;;911278;152;27429;-74
2023/05/06 01:13:41;;;;;;;2.37;2.07;;;15.50;73.10;;;;;;917680;152;27369;-74
2023/05/06 01:16:07;;;;;;;2.07;1.70;;;15.40;73.20;;;;;;917926;152;27466;-74
2023/05/06 01:18:34;;;;;;;1.90;1.80;;;15.40;73.40;;;;;;912114;153;27453;-74
2023/05/06 01:21:01;;;;;;;2.47;1.80;;;15.30;73.60;;;;;;911638;153;27366;-74
2023/05/06 01:23:27;;;;;;;3.07;1.97;;;15.20;73.60;;;;;;934393;149;27370;-74
2023/05/06 01:25:54;;;;;;;2.33;1.90;;;15.20;73.80;;;;;;934331;150;27401;-74
2023/05/06 01:28:20;;;;;;;2.13;1.80;;;15.10;74.10;;;;;;933949;149;27271;-76
2023/05/06 01:30:55;;;;;;;2.10;1.90;;;15.10;74.30;;;;;;919300;152;27327;-76
2023/05/06 01:33:30;;;;;;;3.33;2.10;;;15.00;74.60;;;;;;918136;152;28201;-76
2023/05/06 01:36:12;;;;;;;2.57;2.10;;;15.00;74.80;;;;;;911976;152;27378;-76
2023/05/06 01:38:39;;;;;;;2.43;2.20;;;15.00;75.10;;;;;;926610;151;27917;-76
2023/05/06 01:41:05;;;;;;;2.50;2.30;;;14.90;75.30;;;;;;946602;148;27338;-76
2023/05/06 01:43:35;;;;;;;3.03;2.03;;;14.90;75.60;;;;;;946803;149;27375;-76
2023/05/06 01:46:01;;;;;;;2.43;2.23;;;14.90;75.80;;;;;;930882;151;27359;-76
2023/05/06 01:48:28;;;;;;;2.50;2.30;;;14.90;75.90;;;;;;933068;151;27407;-76
2023/05/06 01:50:55;;;;;;;2.00;1.80;;;14.90;76.00;;;;;;946365;149;27335;-76
2023/05/06 01:53:21;;;;;;;2.10;1.90;;;14.90;76.00;;;;;;947329;149;27356;-76
2023/05/06 01:55:48;;;;;;;2.23;1.87;;;14.80;76.00;;;;;;947592;149;27352;-76
2023/05/06 01:58:14;;;;;;;2.40;2.20;;;14.80;76.00;;;;;;946697;149;27317;-76
2023/05/06 02:00:41;;;;;;;2.70;2.20;;;14.80;76.10;;;;;;947845;149;27732;-76
2023/05/06 02:03:08;;;;;;;3.23;1.73;;;14.70;76.20;;;;;;946992;149;27409;-76
2023/05/06 02:05:34;;;;;;;3.20;2.00;;;14.70;76.50;;;;;;948101;148;27367;-76
2023/05/06 02:08:01;;;;;;;2.10;2.00;;;14.70;76.70;;;;;;947248;148;27433;-76
2023/05/06 02:10:27;;;;;;;3.27;2.00;;;14.60;76.70;;;;;;947522;149;27395;-76
2023/05/06 02:12:54;;;;;;;2.50;2.30;;;14.60;76.90;;;;;;947386;148;27318;-76
2023/05/06 02:15:21;;;;;;;2.40;2.20;;;14.50;77.10;;;;;;947203;148;27445;-76
2023/05/06 02:17:48;;;;;;;2.30;2.10;;;14.50;77.20;;;;;;930433;151;27371;-76
2023/05/06 02:20:14;;;;;;;3.67;2.50;;;14.50;77.50;;;;;;926063;151;27445;-76
2023/05/06 02:22:40;;;;;;;2.33;2.13;;;14.40;77.50;;;;;;931058;151;27353;-76
2023/05/06 02:25:07;;;;;;;2.37;2.17;;;14.40;77.60;;;;;;947727;148;27387;-76
2023/05/06 02:27:34;;;;;;;4.20;2.30;;;14.30;77.70;;;;;;946995;149;27468;-76
2023/05/06 02:30:00;;;;;;;2.13;2.03;;;14.30;77.90;;;;;;946838;148;27372;-76
2023/05/06 02:32:27;;;;;;;2.37;1.80;;;14.30;78.00;;;;;;931771;151;27506;-76
2023/05/06 02:34:53;;;;;;;2.37;2.17;;;14.20;78.20;;;;;;927990;152;27323;-76
2023/05/06 02:37:20;;;;;;;2.13;2.03;;;14.10;78.30;;;;;;946148;148;27343;-76
2023/05/06 02:39:47;;;;;;;2.57;2.00;;;14.10;78.60;;;;;;935353;150;27494;-76
2023/05/06 02:42:13;;;;;;;2.10;2.00;;;14.10;79.10;;;;;;911576;152;27488;-76
2023/05/06 02:44:40;;;;;;;2.27;2.07;;;14.00;79.40;;;;;;917703;152;27418;-76
2023/05/06 02:47:06;;;;;;;2.83;2.40;;;14.10;79.90;;;;;;932186;149;27478;-76
2023/05/06 02:49:33;;;;;;;1.80;1.70;;;14.10;80.20;;;;;;934892;149;27388;-78
2023/05/06 02:52:00;;;;;;;2.73;2.20;;;14.10;80.40;;;;;;935045;149;27458;-78
2023/05/06 02:54:26;;;;;;;2.77;2.07;;;14.10;80.50;;;;;;917704;152;27440;-78
2023/05/06 02:56:53;;;;;;;2.10;2.00;;;14.10;80.70;;;;;;912486;153;27467;-78
2023/05/06 02:59:19;;;;;;;2.33;2.13;;;14.10;80.50;;;;;;926848;152;27468;-78
2023/05/06 03:01:46;;;;;;;2.10;2.00;;;14.10;80.60;;;;;;926521;152;27961;-78
2023/05/06 03:04:12;;;;;;;2.17;2.07;;;14.10;80.40;;;;;;932699;149;27369;-78
2023/05/06 03:06:39;;;;;;;2.53;2.33;;;14.10;80.30;;;;;;912427;153;27361;-78
2023/05/06 03:09:06;;;;;;;2.87;2.60;;;14.10;80.30;;;;;;912146;153;27416;-78
2023/05/06 03:11:32;;;;;;;2.20;2.10;;;14.00;80.40;;;;;;935022;149;27443;-78
2023/05/06 03:13:59;;;;;;;2.40;2.20;;;14.00;80.50;;;;;;912192;153;27374;-78
2023/05/06 03:16:25;;;;;;;3.87;2.70;;;13.90;80.50;;;;;;934480;149;27403;-78
2023/05/06 03:18:52;;;;;;;3.17;2.20;;;13.90;80.70;;;;;;925427;152;27349;-78
2023/05/06 03:21:19;;;;;;;2.47;2.30;;;13.90;80.80;;;;;;918111;152;27402;-78
2023/05/06 03:23:45;;;;;;;3.67;2.30;;;13.80;81.00;;;;;;934797;149;27366;-78
2023/05/06 03:26:12;;;;;;;2.10;2.00;;;13.70;81.00;;;;;;917834;152;27362;-78
2023/05/06 03:28:38;;;;;;;2.60;2.40;;;13.70;81.20;;;;;;934170;149;27348;-78
2023/05/06 03:31:05;;;;;;;2.33;2.03;;;13.70;81.40;;;;;;934553;149;27300;-78
2023/05/06 03:33:32;;;;;;;2.40;2.20;;;13.60;81.60;;;;;;935023;149;27372;-78
2023/05/06 03:35:58;;;;;;;2.63;2.43;;;13.50;81.60;;;;;;918477;152;27425;-78
2023/05/06 03:38:25;;;;;;;2.20;2.10;;;13.50;81.80;;;;;;935450;150;27410;-78
2023/05/06 03:40:51;;;;;;;2.30;2.10;;;13.40;81.80;;;;;;935070;151;27333;-78
2023/05/06 03:43:18;;;;;;;2.33;2.13;;;13.40;82.10;;;;;;926539;151;27418;-78
2023/05/06 03:45:44;;;;;;;3.63;2.27;;;13.30;82.50;;;;;;947671;148;27434;-78
2023/05/06 03:48:11;;;;;;;4.07;2.93;;;13.30;82.70;;;;;;947116;148;27421;-78
2023/05/06 03:50:38;;;;;;;2.17;2.07;;;13.20;82.90;;;;;;947110;148;27297;-78
2023/05/06 03:53:04;;;;;;;2.50;2.30;;;13.20;83.20;;;;;;946890;148;27382;-78
2023/05/06 03:55:31;;;;;;;2.20;2.10;;;13.20;83.60;;;;;;947239;148;27356;-78
2023/05/06 03:57:57;;;;;;;2.30;2.10;;;13.20;84.10;;;;;;931092;151;27434;-78
2023/05/06 04:00:25;;;;;;;2.30;2.10;;;13.10;84.50;;;;;;929905;150;27385;-78
2023/05/06 04:02:51;;;;;;;1.70;1.60;;;13.10;84.80;;;;;;927359;151;27442;-78
2023/05/06 04:05:17;;;;;;;2.87;2.00;;;13.10;85.20;;;;;;927891;151;27599;-78
2023/05/06 04:07:44;;;;;;;2.43;2.23;;;13.10;85.60;;;;;;930503;151;27326;-78
2023/05/06 04:10:10;;;;;;;2.47;2.27;;;13.10;85.90;;;;;;934278;149;27394;-78
2023/05/06 04:12:37;;;;;;;2.13;1.93;;;13.10;86.40;;;;;;930261;151;27363;-78
2023/05/06 04:15:04;;;;;;;2.77;2.30;;;13.10;86.70;;;;;;930246;151;27416;-78
2023/05/06 04:17:30;;;;;;;2.40;2.20;;;13.10;87.00;;;;;;941290;149;27387;-78
2023/05/06 04:19:57;;;;;;;2.20;2.00;;;13.20;87.30;;;;;;941265;149;27321;-78
2023/05/06 04:22:23;;;;;;;2.57;2.17;;;13.20;87.60;;;;;;942087;149;27309;-78
2023/05/06 04:24:50;;;;;;;4.87;2.20;;;13.20;87.90;;;;;;942103;149;27332;-78
2023/05/06 04:27:16;;;;;;;2.83;2.20;;;13.20;88.20;;;;;;927618;152;27484;-78
2023/05/06 04:29:43;;;;;;;2.10;2.00;;;13.30;88.50;;;;;;930316;151;27428;-78
2023/05/06 04:32:10;;;;;;;2.40;2.20;;;13.30;89.60;;;;;;947391;148;27433;-78
2023/05/06 04:34:36;;;;;;;2.30;2.07;;;13.40;89.30;;;;;;946819;148;27285;-78
2023/05/06 04:37:03;;;;;;;2.47;2.27;;;13.40;89.60;;;;;;930399;151;27407;-78
2023/05/06 04:39:30;;;;;;;2.17;1.97;;;13.50;90.00;;;;;;930390;151;27822;-78
2023/05/06 04:41:56;;;;;;;2.03;1.80;;;13.50;90.20;;;;;;947035;148;27329;-78
2023/05/06 04:44:23;;;;;;;2.37;2.13;;;13.60;90.00;;;;;;947859;148;27337;-78
2023/05/06 04:46:50;;;;;;;2.63;2.20;;;13.60;90.40;;;;;;946555;148;27403;-78
2023/05/06 04:49:16;;;;;;;2.33;2.13;;;13.70;90.50;;;;;;947013;148;27372;-79
2023/05/06 04:51:42;;;;;;;2.13;2.00;;;13.80;90.60;;;;;;930734;151;27438;-78
2023/05/06 04:54:09;;;;;;;1.70;1.60;;;13.80;90.60;;;;;;946770;149;27354;-78
2023/05/06 04:56:35;;;;;;;2.30;2.20;;;13.90;91.00;;;;;;947407;148;27340;-78
2023/05/06 04:59:02;;;;;;;2.47;2.23;;;14.00;91.80;;;;;;946399;151;27380;-78
2023/05/06 05:01:29;;;;;;;2.97;2.00;;;14.20;92.60;;;;;;947318;148;27366;-78
2023/05/06 05:03:55;;;;;;;3.10;2.40;;;14.50;93.40;;;;;;930186;151;27833;-78
2023/05/06 05:06:22;;;;;;;3.50;2.33;;;14.80;94.20;;;;;;946780;148;27268;-78
2023/05/06 05:08:48;;;;;;;1.82;1.72;;;15.30;95.00;;;;;;944335;148;27452;-78
2023/05/06 05:11:15;;;;;;;2.33;2.10;;;15.80;96.10;;;;;;945766;151;27367;-79
2023/05/06 05:13:42;;;;;;;2.98;1.90;;;16.30;96.70;;;;;;928915;151;27378;-78
2023/05/06 05:16:08;;;;;;;2.65;1.90;;;17.00;96.90;;;;;;930962;150;27499;-78
2023/05/06 05:18:35;;;;;;;1.82;1.50;;;17.70;96.70;;;;;;948158;148;27328;-78
2023/05/06 05:21:01;;;;;;;1.87;1.77;;;18.40;96.20;;;;;;947838;148;27433;-79
2023/05/06 05:23:28;;;;;;;2.50;1.55;;;19.10;95.10;;;;;;946701;148;27362;-78
2023/05/06 05:25:55;;;;;;;1.57;1.47;;;19.80;93.80;;;;;;946891;148;27316;-79
2023/05/06 05:28:21;;;;;;;1.30;1.20;;;20.50;92.40;;;;;;946966;148;27375;-78
2023/05/06 05:30:48;;;;;;;1.30;1.20;;;21.20;91.40;;;;;;947497;148;27369;-78
2023/05/06 05:33:14;;;;;;;1.52;1.32;;;21.80;90.30;;;;;;947383;148;27445;-79
2023/05/06 05:35:41;;;;;;;1.87;1.47;;;22.50;87.20;;;;;;947003;148;27329;-79
2023/05/06 05:38:07;;;;;;;1.82;1.40;;;23.20;85.10;;;;;;947508;148;27329;-78
2023/05/06 05:40:34;;;;;;;1.40;1.30;;;23.90;81.70;;;;;;947683;148;27309;-78
2023/05/06 05:43:01;;;;;;;2.05;1.20;;;24.60;79.10;;;;;;946997;149;27411;-79
2023/05/06 05:45:27;;;;;;;1.47;1.37;;;25.30;76.50;;;;;;930408;151;27370;-79
2023/05/06 05:47:54;;;;;;;0.90;0.90;;;25.90;73.90;;;;;;947768;148;27406;-79
2023/05/06 05:50:20;;;;;;;1.12;1.00;;;26.60;72.90;;;;;;923742;151;27311;-79
2023/05/06 05:52:47;;;;;;;1.10;1.10;;;27.30;69.90;;;;;;947181;149;27345;-79
2023/05/06 05:55:14;;;;;;;0.85;0.82;;;27.80;67.30;;;;;;931471;151;27461;-79
2023/05/06 05:57:40;;;;;;;1.70;1.15;;;28.30;65.30;;;;;;946717;149;27290;-79
2023/05/06 06:00:08;;;;;;;2.98;1.40;;;28.90;63.70;;;;;;946711;149;27335;-78
2023/05/06 06:02:34;;;;;;;1.72;1.05;;;29.20;62.10;;;;;;938024;150;27526;-79
2023/05/06 06:05:00;;;;;;;1.30;1.17;;;29.60;60.80;;;;;;938413;150;27422;-79
2023/05/06 06:07:27;;;;;;;1.10;1.00;;;30.00;59.90;;;;;;937746;150;27767;-79
2023/05/06 06:09:53;;;;;;;1.10;1.00;;;30.40;59.10;;;;;;947154;149;27329;-78
2023/05/06 06:12:20;;;;;;;1.35;0.95;;;30.80;58.50;;;;;;947039;148;27335;-79
2023/05/06 06:14:46;;;;;;;2.12;1.60;;;31.20;57.70;;;;;;946451;148;27320;-77
2023/05/06 06:17:13;;;;;;;1.77;1.27;;;31.50;56.90;;;;;;947428;148;27364;-76
2023/05/06 06:19:40;;;;;;;0.70;0.70;;;31.90;56.10;;;;;;946824;149;27284;-77
2023/05/06 06:22:06;;;;;;;2.67;1.30;;;32.30;55.80;;;;;;949960;148;27391;-76
2023/05/06 06:24:33;;;;;;;1.27;1.17;;;32.70;55.10;;;;;;929558;151;27438;-76
2023/05/06 06:27:00;;;;;;;0.90;0.90;;;33.20;54.40;;;;;;947608;148;26412;-76
2023/05/06 06:29:26;;;;;;;1.98;1.22;;;33.60;53.80;;;;;;927817;151;27485;-76
2023/05/06 06:31:54;;;;;;;1.65;1.52;;;34.00;52.90;;;;;;930538;151;26291;-76
2023/05/06 06:34:19;;;;;;;1.25;1.17;;;34.30;51.80;;;;;;936002;150;26621;-76
2023/05/06 06:36:46;;;;;;;1.27;1.10;;;34.60;50.90;;;;;;927725;151;26344;-76
2023/05/06 06:39:12;;;;;;;1.20;1.10;;;34.90;50.20;;;;;;927413;151;26304;-76
2023/05/06 06:41:39;;;;;;;1.37;1.20;;;35.10;49.40;;;;;;943402;148;27388;-76
2023/05/06 06:44:06;;;;;;;1.62;1.20;;;35.30;49.00;;;;;;943098;151;26244;-76
2023/05/06 06:46:32;;;;;;;1.40;1.20;;;35.40;48.60;;;;;;942442;149;26213;-76
2023/05/06 06:48:59;;;;;;;1.37;1.17;;;35.60;48.40;;;;;;932661;149;26374;-76
2023/05/06 06:51:25;;;;;;;2.72;1.25;;;35.80;48.10;;;;;;927220;152;26289;-76
2023/05/06 06:53:52;;;;;;;1.75;0.98;;;36.10;47.80;;;;;;926475;152;26370;-76
2023/05/06 06:56:18;;;;;;;1.50;0.98;;;36.50;47.40;;;;;;926306;151;26733;-76
2023/05/06 06:58:45;;;;;;;0.95;0.90;;;36.90;46.70;;;;;;927137;151;26403;-76
2023/05/06 07:01:12;;;;;;;1.37;1.10;;;37.20;46.40;;;;;;927333;152;26374;-76
2023/05/06 07:03:38;;;;;;;1.20;1.10;;;37.60;45.50;;;;;;926831;152;26190;-76
2023/05/06 07:06:05;;;;;;;1.30;1.20;;;37.90;44.80;;;;;;926989;152;26305;-76
2023/05/06 07:08:31;;;;;;;2.12;0.95;;;38.20;44.20;;;;;;927109;152;26265;-76
2023/05/06 07:10:58;;;;;;;1.50;1.00;;;38.40;43.60;;;;;;925933;151;26413;-76
2023/05/06 07:13:25;;;;;;;1.65;1.07;;;38.70;43.20;;;;;;926919;152;26287;-76
2023/05/06 07:15:51;;;;;;;1.20;1.10;;;38.90;42.60;;;;;;911430;153;26275;-77
2023/05/06 07:18:18;;;;;;;1.85;1.10;;;39.20;42.20;;;;;;932639;149;26242;-76
2023/05/06 07:20:44;;;;;;;1.55;1.20;;;39.50;41.60;;;;;;934398;149;26284;-77
2023/05/06 07:23:11;;;;;;;0.93;0.93;;;39.70;41.00;;;;;;931936;149;26784;-76
2023/05/06 07:25:38;;;;;;;1.40;1.30;;;39.90;40.40;;;;;;932513;149;26242;-77
2023/05/06 07:28:04;;;;;;;1.10;1.00;;;40.10;40.20;;;;;;917177;152;26259;-77
2023/05/06 07:30:31;;;;;;;1.55;1.27;;;40.30;39.70;;;;;;912094;153;26425;-77
2023/05/06 07:32:57;;;;;;;0.95;0.80;;;40.60;39.30;;;;;;932107;149;26274;-77
2023/05/06 07:35:24;;;;;;;1.80;1.10;;;40.90;39.00;;;;;;917692;152;26296;-78
2023/05/06 07:37:51;;;;;;;1.45;1.05;;;41.10;38.50;;;;;;933462;149;26220;-78
2023/05/06 07:40:17;;;;;;;1.07;0.90;;;41.40;38.00;;;;;;934057;149;26214;-78
2023/05/06 07:42:44;;;;;;;0.90;0.90;;;41.60;37.60;;;;;;934666;149;26350;-77
2023/05/06 07:45:10;;;;;;;1.82;1.30;;;41.80;37.00;;;;;;939376;150;26263;-79
2023/05/06 07:47:37;;;;;;;1.10;0.95;;;42.20;36.60;;;;;;940527;150;26318;-77
2023/05/06 07:50:05;;;;;;;1.27;0.98;;;42.40;36.00;;;;;;923115;152;26369;-76
2023/05/06 07:52:30;;;;;;;1.30;0.95;;;42.60;35.60;;;;;;937964;149;26358;-76
2023/05/06 07:54:57;;;;;;;1.10;1.00;;;42.70;35.10;;;;;;924190;152;26278;-77
2023/05/06 07:57:23;;;;;;;1.22;1.10;;;42.80;34.60;;;;;;939784;149;26251;-76
2023/05/06 07:59:50;;;;;;;2.30;1.02;;;42.70;34.10;;;;;;940394;150;26268;-77
2023/05/06 08:02:16;;;;;;;0.98;0.90;;;42.60;33.80;;;;;;939631;149;26237;-76
2023/05/06 08:04:43;;;;;;;1.98;0.95;;;42.50;33.70;;;;;;940285;150;26279;-76
2023/05/06 08:07:10;;;;;;;0.82;0.82;;;42.50;33.30;;;;;;939773;149;26280;-77
2023/05/06 08:09:36;;;;;;;1.77;0.82;;;42.50;33.40;;;;;;941210;149;26321;-76
2023/05/06 08:12:03;;;;;;;1.67;0.93;;;42.50;33.10;;;;;;941685;150;26323;-77
2023/05/06 08:14:29;;;;;;;0.82;0.82;;;42.70;33.00;;;;;;928728;152;26330;-77
2023/05/06 08:16:56;;;;;;;0.70;0.60;;;42.70;32.70;;;;;;925024;152;26788;-77
2023/05/06 08:19:22;;;;;;;1.27;0.78;;;42.90;32.70;;;;;;924611;152;26293;-77
2023/05/06 08:21:50;;;;;;;0.70;0.53;;;43.00;32.50;;;;;;925312;153;26251;-77
2023/05/06 08:24:16;;;;;;;1.90;1.10;;;43.20;32.20;;;;;;941303;148;26268;-77
2023/05/06 08:26:42;;;;;;;0.88;0.80;;;43.40;31.80;;;;;;925113;152;26294;-77
2023/05/06 08:29:09;;;;;;;1.60;0.75;;;43.70;31.40;;;;;;925230;152;26284;-77
2023/05/06 08:31:35;;;;;;;0.75;0.68;;;43.90;31.00;;;;;;918996;153;26281;-77
2023/05/06 08:34:02;;;;;;;1.12;0.65;;;44.10;30.70;;;;;;924463;153;26312;-77
2023/05/06 08:36:29;;;;;;;0.78;0.78;;;44.30;30.30;;;;;;925852;153;26375;-77
2023/05/06 08:38:55;;;;;;;1.02;0.72;;;44.30;29.80;;;;;;919851;152;26351;-78
2023/05/06 08:41:22;;;;;;;0.65;0.60;;;44.30;29.80;;;;;;923976;154;26266;-77
2023/05/06 08:43:49;;;;;;;1.40;0.80;;;44.30;30.10;;;;;;932113;150;26285;-78
2023/05/06 08:46:15;;;;;;;0.80;0.80;;;44.40;29.70;;;;;;933081;149;26273;-78
2023/05/06 08:48:42;;;;;;;0.70;0.53;;;44.40;29.60;;;;;;934112;150;26273;-79
2023/05/06 08:51:08;;;;;;;1.42;0.80;;;44.40;29.20;;;;;;934236;149;26437;-77
2023/05/06 08:53:35;;;;;;;1.15;1.00;;;44.20;28.60;;;;;;910470;152;26327;-76
2023/05/06 08:56:03;;;;;;;1.35;0.65;;;43.80;28.40;;;;;;911103;152;26305;-77
2023/05/06 08:58:28;;;;;;;1.20;0.90;;;43.10;28.00;;;;;;916889;152;26290;-76
2023/05/06 09:00:55;;;;;;;1.17;0.75;;;42.20;28.00;;;;;;933750;149;26725;-76
2023/05/06 09:03:21;;;;;;;1.00;0.90;;;41.40;28.20;;;;;;917204;152;26666;-76
2023/05/06 09:05:48;;;;;;;0.85;0.85;;;40.30;28.30;;;;;;933686;150;26272;-76
2023/05/06 09:08:14;;;;;;;1.10;0.78;;;39.40;28.70;;;;;;911260;153;26248;-76
2023/05/06 09:10:44;;;;;;;1.17;1.05;;;38.40;28.80;;;;;;926326;151;26348;-76
2023/05/06 09:13:10;;;;;;;1.55;0.90;;;37.50;28.70;;;;;;925776;151;27371;-76
2023/05/06 09:15:40;;;;;;;1.12;0.80;;;36.70;29.70;;;;;;924213;151;27760;-76
2023/05/06 09:18:06;;;;;;;0.82;0.70;;;36.00;30.20;;;;;;926390;152;27451;-75
2023/05/06 09:20:33;;;;;;;1.40;0.90;;;35.30;30.80;;;;;;912616;152;27487;-75
2023/05/06 09:23:00;;;;;;;1.12;1.02;;;34.70;31.10;;;;;;910695;152;27408;-75
2023/05/06 09:25:26;;;;;;;3.45;1.02;;;34.10;31.50;;;;;;917550;152;27442;-75
2023/05/06 09:27:53;;;;;;;0.80;0.80;;;33.60;32.00;;;;;;911412;153;27359;-75
2023/05/06 09:30:19;;;;;;;1.75;0.80;;;33.20;32.70;;;;;;931338;149;27374;-75
2023/05/06 09:32:48;;;;;;;1.27;0.98;;;32.80;33.00;;;;;;916473;150;27407;-75
2023/05/06 09:35:13;;;;;;;1.05;0.93;;;32.50;33.30;;;;;;934385;149;27696;-75
2023/05/06 09:37:39;;;;;;;0.65;0.65;;;32.20;33.40;;;;;;933844;149;27450;-75
2023/05/06 09:40:06;;;;;;;1.27;0.98;;;31.90;33.70;;;;;;933494;149;27370;-75
2023/05/06 09:42:32;;;;;;;0.82;0.68;;;31.60;33.90;;;;;;932789;149;27463;-75
2023/05/06 09:44:59;;;;;;;0.93;0.93;;;31.40;34.50;;;;;;918094;152;27353;-75
2023/05/06 09:47:26;;;;;;;0.50;0.50;;;31.30;35.40;;;;;;916693;152;27362;-75
2023/05/06 09:49:58;;;;;;;0.75;0.75;;;31.40;36.10;;;;;;920681;152;27370;-76
2023/05/06 09:52:27;;;;;;;2.22;0.90;;;31.70;36.50;;;;;;933799;149;27776;-75
2023/05/06 09:54:54;;;;;;;1.10;1.00;;;32.10;36.40;;;;;;934105;149;26249;-75
2023/05/06 09:57:21;;;;;;;1.45;0.75;;;32.50;36.00;;;;;;934136;149;27285;-75
2023/05/06 09:59:47;;;;;;;0.75;0.75;;;32.80;35.80;;;;;;934443;149;27370;-75
2023/05/06 10:02:14;;;;;;;0.85;0.82;;;33.00;35.30;;;;;;932830;150;27422;-75
2023/05/06 10:04:40;;;;;;;0.75;0.55;;;33.10;34.70;;;;;;932588;150;27354;-75
2023/05/06 10:07:12;;;;;;;0.70;0.70;;;33.30;34.60;;;;;;918585;152;27381;-75
2023/05/06 10:09:39;;;;;;;1.12;0.70;;;33.30;34.40;;;;;;932912;149;27416;-75
2023/05/06 10:12:08;;;;;;;2.72;0.78;;;33.20;34.20;;;;;;932340;149;27395;-75
2023/05/06 10:14:38;;;;;;;0.60;0.60;;;33.10;34.10;;;;;;933304;149;27414;-75
2023/05/06 10:17:07;;;;;;;0.62;0.50;;;32.90;34.20;;;;;;933989;149;27305;-75
2023/05/06 10:19:34;;;;;;;1.02;0.80;;;32.80;34.30;;;;;;933321;149;27454;-75
2023/05/06 10:22:01;;;;;;;0.78;0.70;;;32.60;34.40;;;;;;932838;149;27383;-75
2023/05/06 10:24:30;;;;;;;1.07;0.85;;;32.60;34.40;;;;;;932608;149;27356;-75
2023/05/06 10:26:56;;;;;;;1.00;0.80;;;32.40;34.30;;;;;;932452;149;27376;-75
2023/05/06 10:29:23;;;;;;;0.70;0.70;;;32.20;34.30;;;;;;933781;149;27450;-74
2023/05/06 10:31:49;;;;;;;1.15;0.65;;;31.90;34.30;;;;;;933647;149;27299;-75
2023/05/06 10:34:16;;;;;;;1.52;0.60;;;31.70;34.60;;;;;;933208;149;27401;-75
2023/05/06 10:36:42;;;;;;;0.60;0.57;;;31.50;34.90;;;;;;933165;149;27321;-75
2023/05/06 10:39:09;;;;;;;1.07;0.60;;;31.40;35.20;;;;;;934535;149;27462;-75
2023/05/06 10:41:36;;;;;;;1.00;0.60;;;31.30;35.30;;;;;;933160;149;27463;-75
2023/05/06 10:44:02;;;;;;;0.70;0.70;;;31.30;35.50;;;;;;933626;149;26272;-79
2023/05/06 10:46:29;;;;;;;0.50;0.40;;;31.30;35.40;;;;;;951980;147;26305;-79
2023/05/06 10:49:05;;;;;;;0.53;0.53;;;31.30;35.30;;;;;;953139;147;27414;-79
2023/05/06 10:51:33;;;;;;;0.53;0.50;;;31.30;35.20;;;;;;953735;147;27335;-80
2023/05/06 10:54:03;;;;;;;1.12;0.72;;;31.30;35.40;;;;;;953654;147;27257;-80
2023/05/06 10:56:29;;;;;;;0.50;0.50;;;31.20;35.20;;;;;;953676;147;27358;-80
2023/05/06 10:58:56;;;;;;;0.62;0.40;;;31.10;35.10;;;;;;953068;147;27378;-78
2023/05/06 11:01:25;;;;;;;1.95;0.60;;;31.10;35.30;;;;;;953605;147;27386;-77
2023/05/06 11:03:52;;;;;;;1.60;0.70;;;31.00;35.30;;;;;;953745;147;27367;-78
2023/05/06 11:06:49;;;;;;;1.55;0.60;;;30.90;35.40;;;;;;954280;147;27771;-78
2023/05/06 11:09:19;;;;;;;1.12;0.70;;;30.90;35.60;;;;;;952453;147;27418;-77
2023/05/06 11:11:45;;;;;;;0.90;0.60;;;30.80;35.50;;;;;;953578;147;27426;-77
2023/05/06 11:14:12;;;;;;;0.85;0.60;;;30.80;35.60;;;;;;952352;147;27312;-78
2023/05/06 11:16:50;;;;;;;0.45;0.33;;;30.80;35.60;;;;;;954009;147;27269;-77
2023/05/06 11:19:26;;;;;;;0.60;0.50;;;30.60;35.70;;;;;;951875;147;27367;-77
2023/05/06 11:21:56;;;;;;;1.60;0.62;;;30.50;35.80;;;;;;951536;147;27328;-78
2023/05/06 11:24:21;;;;;;;1.20;0.72;;;30.30;35.90;;;;;;954156;147;27340;-76
2023/05/06 11:26:48;;;;;;;0.50;0.50;;;30.20;36.30;;;;;;953456;147;27355;-76
2023/05/06 11:29:17;;;;;;;0.72;0.72;;;30.10;36.30;;;;;;953668;147;27339;-76
2023/05/06 11:31:44;;;;;;;0.88;0.70;;;30.00;36.40;;;;;;953825;147;27341;-76
2023/05/06 11:34:10;;;;;;;0.98;0.70;;;29.90;36.40;;;;;;952936;147;27316;-76
2023/05/06 11:36:37;;;;;;;0.65;0.50;;;29.80;36.40;;;;;;951841;147;27691;-76
2023/05/06 11:39:07;;;;;;;1.12;0.95;;;29.70;36.40;;;;;;952133;147;27414;-76
2023/05/06 11:41:33;;;;;;;1.35;0.50;;;29.60;36.60;;;;;;954170;147;27308;-76
2023/05/06 11:44:00;;;;;;;0.88;0.75;;;29.40;36.70;;;;;;953799;147;27307;-76
2023/05/06 11:46:26;;;;;;;0.70;0.70;;;29.30;36.70;;;;;;951463;147;27412;-76
2023/05/06 11:48:53;;;;;;;0.65;0.55;;;29.20;36.90;;;;;;950340;148;27374;-76
2023/05/06 11:51:22;;;;;;;0.60;0.60;;;29.10;37.00;;;;;;950053;148;27324;-76
2023/05/06 11:53:49;;;;;;;0.62;0.57;;;29.00;37.10;;;;;;950170;148;27300;-76
2023/05/06 11:56:15;;;;;;;0.88;0.62;;;29.00;37.40;;;;;;946702;148;27345;-76
2023/05/06 11:58:42;;;;;;;1.00;0.50;;;28.80;37.30;;;;;;926163;151;27419;-75
2023/05/06 12:01:09;;;;;;;1.00;0.50;;;28.70;37.50;;;;;;946969;149;27324;-76
2023/05/06 12:03:35;;;;;;;0.70;0.70;;;28.70;37.80;;;;;;931277;151;27425;-76
2023/05/06 12:06:02;;;;;;;0.60;0.60;;;28.60;38.00;;;;;;926673;152;27465;-76
2023/05/06 12:08:31;;;;;;;0.60;0.60;;;28.60;38.10;;;;;;931248;151;27378;-76
2023/05/06 12:10:57;;;;;;;1.75;0.70;;;28.60;38.20;;;;;;931116;151;27279;-76
2023/05/06 12:13:24;;;;;;;1.12;0.50;;;28.60;38.10;;;;;;927002;151;27301;-76
2023/05/06 12:15:51;;;;;;;0.62;0.62;;;28.50;38.10;;;;;;947024;148;27430;-76
2023/05/06 12:18:18;;;;;;;0.62;0.62;;;28.50;38.10;;;;;;947291;148;27371;-76
2023/05/06 12:20:46;;;;;;;0.50;0.45;;;28.50;38.20;;;;;;930304;151;27381;-76
2023/05/06 12:23:11;;;;;;;0.45;0.42;;;28.50;38.20;;;;;;946819;148;27377;-76
2023/05/06 12:25:38;;;;;;;2.47;0.88;;;28.50;38.30;;;;;;947549;148;27428;-76
2023/05/06 12:28:17;;;;;;;0.60;0.60;;;28.40;38.10;;;;;;946738;148;27337;-76
2023/05/06 12:30:43;;;;;;;2.02;0.50;;;28.40;38.20;;;;;;930703;151;27452;-76
2023/05/06 12:33:10;;;;;;;1.00;0.75;;;28.40;38.20;;;;;;930577;151;27361;-76
2023/05/06 12:35:37;;;;;;;0.70;0.60;;;28.30;38.40;;;;;;937356;150;27302;-76
2023/05/06 12:38:12;;;;;;;1.30;1.20;;;28.30;38.70;;;;;;936008;150;27357;-76
2023/05/06 12:40:39;;;;;;;1.17;0.80;;;28.30;38.70;;;;;;935534;150;27414;-76
2023/05/06 12:43:06;;;;;;;0.47;0.47;;;28.30;38.90;;;;;;936041;150;27471;-76
2023/05/06 12:45:32;;;;;;;0.82;0.60;;;28.40;39.00;;;;;;928357;151;27370;-76
2023/05/06 12:48:00;;;;;;;0.42;0.40;;;28.50;39.00;;;;;;917528;151;27329;-76